Celebrity Mercury — 9HJG9 — position and weather

sailwx.info

Track history (hours):
 
Tides and Currents Weather Stations Pressure Air Temp Water Temp Dewpoint Dewpoint Depression Visibility Wind Speed Wind Dir Waves Ship Positions

Celebrity Mercury

Last reported at 2018-Feb-22 01:39 UTC. Time now 2018-Feb-22 17:09 UTC.
Position N 35°58' W 005°38'.

Length 264 m; draft 8.5 m.

Type: Ship. MMSI: 249053000.

Date/timePositionNaut miles runAvg speedWind from/ knotsBaromVisibWave heightAir tempDewpointWater temp
2018-Feb-22 01:39N 35°58' W 005°38'215.5
2018-Feb-22 01:30N 35°58' W 005°35'816.1
2018-Feb-22 01:00N 35°60' W 005°26'815.3
2018-Feb-22 00:30N 36°01' W 005°16'917.5
2018-Feb-22 00:00N 36°03' W 005°05'21216.2
2018-Feb-21 10:53N 37°06' W 000°53'616.8
2018-Feb-21 10:30N 37°10' W 000°47'19316.4
2018-Feb-20 22:43N 39°12' E 002°22'316.2
2018-Feb-20 22:30N 39°15' E 002°25'816.2
2018-Feb-20 22:00N 39°22' E 002°30'816.3
2018-Feb-20 21:30N 39°29' E 002°36'4 8.5
2018-Feb-20 20:59N 39°33' E 002°38'0 0.1
2018-Feb-20 20:29N 39°33' E 002°38'0 0.0
2018-Feb-20 19:59N 39°33' E 002°38'0 0.0
2018-Feb-20 19:29N 39°33' E 002°38'0 0.0
2018-Feb-20 18:59N 39°33' E 002°38'0 0.0
2018-Feb-20 18:29N 39°33' E 002°38'0 0.0
2018-Feb-20 17:59N 39°33' E 002°38'0 0.0
2018-Feb-20 17:29N 39°33' E 002°38'0 0.0
2018-Feb-20 16:59N 39°33' E 002°38'0 0.0
2018-Feb-20 16:28N 39°33' E 002°38'0 0.0
2018-Feb-20 15:58N 39°33' E 002°38'0 0.0
2018-Feb-20 15:28N 39°33' E 002°38'0 0.0
2018-Feb-20 14:58N 39°33' E 002°38'0 0.0
2018-Feb-20 14:28N 39°33' E 002°38'0 0.0
2018-Feb-20 13:58N 39°33' E 002°38'0 0.0
2018-Feb-20 13:28N 39°33' E 002°38'0 0.0
2018-Feb-20 12:58N 39°33' E 002°38'0 0.0
2018-Feb-20 12:28N 39°33' E 002°38'0 0.0
2018-Feb-20 11:58N 39°33' E 002°38'0 0.0
2018-Feb-20 11:28N 39°33' E 002°38'0 0.0
2018-Feb-20 10:58N 39°33' E 002°38'0 0.0
2018-Feb-20 10:28N 39°33' E 002°38'0 0.0
2018-Feb-20 09:58N 39°33' E 002°38'0 0.0
2018-Feb-20 09:30N 39°33' E 002°38'0 0.0
2018-Feb-20 08:59N 39°33' E 002°38'0 0.0
2018-Feb-20 08:29N 39°33' E 002°38'0 0.0
2018-Feb-20 07:59N 39°33' E 002°38'0 0.0
2018-Feb-20 07:29N 39°33' E 002°38'0 0.0
2018-Feb-20 06:59N 39°33' E 002°38'0 0.0
2018-Feb-20 06:29N 39°33' E 002°38'0 0.0
2018-Feb-20 05:59N 39°33' E 002°38'0 0.0
2018-Feb-20 05:26N 39°33' E 002°38'0 0.0
2018-Feb-20 04:59N 39°33' E 002°38'0 0.0
2018-Feb-20 04:29N 39°33' E 002°38'0 0.0
2018-Feb-20 03:59N 39°33' E 002°38'0 0.0
2018-Feb-20 03:29N 39°33' E 002°38'0 0.0
2018-Feb-20 02:59N 39°33' E 002°38'1 1.2
2018-Feb-20 02:30N 39°33' E 002°38'4 8.6
2018-Feb-20 02:00N 39°29' E 002°37'713.8
2018-Feb-20 01:30N 39°24' E 002°32'714.0
2018-Feb-20 01:00N 39°26' E 002°23'9715.3
2018-Feb-19 18:40N 41°02' E 002°09'315.9
2018-Feb-19 18:30N 41°05' E 002°10'816.0
2018-Feb-19 18:00N 41°13' E 002°11'713.2
2018-Feb-19 17:30N 41°19' E 002°10'2 4.4
2018-Feb-19 16:58N 41°22' E 002°11'0 0.0
2018-Feb-19 16:28N 41°22' E 002°11'0 0.0
2018-Feb-19 15:58N 41°22' E 002°11'0 0.0
2018-Feb-19 15:30N 41°22' E 002°11'0 0.0
2018-Feb-19 14:59N 41°22' E 002°11'0 0.0
2018-Feb-19 14:20N 41°22' E 002°11'0 0.0
2018-Feb-19 13:59N 41°22' E 002°11'0 0.0
2018-Feb-19 13:29N 41°22' E 002°11'0 0.0
2018-Feb-19 12:58N 41°22' E 002°11'0 0.0
2018-Feb-19 12:28N 41°22' E 002°11'0 0.0
2018-Feb-19 10:34N 41°22' E 002°11'0 0.0
2018-Feb-19 10:28N 41°22' E 002°11'0 0.0
2018-Feb-19 09:58N 41°22' E 002°11'0 0.0
2018-Feb-19 09:28N 41°22' E 002°11'3 0.8
2018-Feb-19 05:13N 41°18' E 002°10'7 8.9
2018-Feb-19 04:28N 41°12' E 002°11'613.4
2018-Feb-19 03:59N 41°06' E 002°07'613.5
2018-Feb-19 03:30N 41°00' E 002°03'713.1
2018-Feb-19 03:00N 40°54' E 001°59'20715.8
2018-Feb-18 13:55N 37°54' W 000°12'1017.0
2018-Feb-18 13:21N 37°46' W 000°19'617.0
2018-Feb-18 13:00N 37°41' W 000°23'816.7
2018-Feb-18 12:31N 37°35' W 000°29'816.3
2018-Feb-18 12:01N 37°29' W 000°37'815.9
2018-Feb-18 11:31N 37°24' W 000°44'815.7
2018-Feb-18 11:01N 37°19' W 000°52'815.7
2018-Feb-18 10:29N 37°13' W 000°59'713.9
2018-Feb-18 10:00N 37°09' W 001°06'  
2018-Feb-15 12:28N 30°26' W 009°39'0 0.0
2018-Feb-15 11:58N 30°26' W 009°39'0 0.0
2018-Feb-15 11:19N 30°26' W 009°39'0 0.0
2018-Feb-15 10:46N 30°26' W 009°39'0 0.0
2018-Feb-15 10:19N 30°26' W 009°39'17 4.2
2018-Feb-15 06:23N 30°18' W 009°56'718.6
2018-Feb-15 05:59N 30°15' W 010°03'918.3
2018-Feb-15 05:29N 30°11' W 010°13'1418.3
2018-Feb-15 04:42N 30°05' W 010°28'418.5
2018-Feb-15 04:30N 30°04' W 010°32'5918.3
2018-Feb-15 01:17N 29°40' W 011°34'518.3
2018-Feb-15 01:00N 29°38' W 011°40'918.2
2018-Feb-15 00:30N 29°35' W 011°49'918.0
2018-Feb-15 00:00N 29°31' W 011°59'815.4
2018-Feb-14 23:29N 29°28' W 012°07'815.5
2018-Feb-14 22:58N 29°25' W 012°16'715.4
2018-Feb-14 22:30N 29°22' W 012°23'815.4
2018-Feb-14 22:00N 29°19' W 012°32'715.1
2018-Feb-14 21:30N 29°15' W 012°39'815.4
2018-Feb-14 21:00N 29°13' W 012°47'815.5
2018-Feb-14 20:30N 29°10' W 012°56'1215.5
2018-Feb-14 19:45N 29°05' W 013°08'415.9
2018-Feb-14 19:30N 29°04' W 013°12'815.9
2018-Feb-14 19:00N 29°01' W 013°20'816.0
2018-Feb-14 18:30N 28°57' W 013°29'3 5.8
2018-Feb-14 17:59N 28°58' W 013°32'0 0.0
2018-Feb-14 17:29N 28°58' W 013°32'0 0.0
2018-Feb-14 16:59N 28°58' W 013°32'0 0.0
2018-Feb-14 16:23N 28°58' W 013°32'0 0.0
2018-Feb-14 15:59N 28°58' W 013°32'0 0.0
2018-Feb-14 15:23N 28°58' W 013°32'0 0.0
2018-Feb-14 14:59N 28°58' W 013°32'0 0.0
2018-Feb-14 14:23N 28°58' W 013°32'0 0.0
2018-Feb-14 13:53N 28°58' W 013°32'0 0.0
2018-Feb-14 13:29N 28°58' W 013°32'0 0.0
2018-Feb-14 12:53N 28°58' W 013°32'0 0.0
2018-Feb-14 12:26N 28°58' W 013°32'0 0.0
2018-Feb-14 11:56N 28°58' W 013°32'0 0.0
2018-Feb-14 11:26N 28°58' W 013°32'0 0.0
2018-Feb-14 10:56N 28°58' W 013°32'0 0.0
2018-Feb-14 09:41N 28°58' W 013°32'0 0.0
2018-Feb-14 09:23N 28°58' W 013°32'0 0.0
2018-Feb-14 02:35N 28°58' W 013°32'0 0.0
2018-Feb-14 02:23N 28°58' W 013°32'0 0.0
2018-Feb-13 21:53N 28°58' W 013°32'0 0.6
2018-Feb-13 21:29N 28°58' W 013°32'612.1
2018-Feb-13 21:00N 28°52' W 013°35'713.1
2018-Feb-13 20:30N 28°47' W 013°39'612.0
2018-Feb-13 20:00N 28°41' W 013°42'5 8.6
2018-Feb-13 19:27N 28°37' W 013°44'4 8.7
2018-Feb-13 19:00N 28°34' W 013°46'5 8.4
2018-Feb-13 18:22N 28°29' W 013°50'2 1.5
2018-Feb-13 17:19N 28°30' W 013°51'0 0.0
2018-Feb-13 17:01N 28°30' W 013°51'0 0.0
2018-Feb-13 16:31N 28°30' W 013°51'8 0.8
2018-Feb-13 06:54N 28°34' W 013°44'614.4
2018-Feb-13 06:30N 28°38' W 013°40'714.2
2018-Feb-13 06:00N 28°44' W 013°35'713.9
2018-Feb-13 05:30N 28°50' W 013°30'713.7
2018-Feb-13 05:01N 28°54' W 013°25'612.7
2018-Feb-13 04:30N 28°59' W 013°19'816.3
2018-Feb-13 04:01N 29°05' W 013°14'  
Track history (hours):
 
Tides and Currents Weather Stations Pressure Air Temp Water Temp Dewpoint Dewpoint Depression Visibility Wind Speed Wind Dir Waves Ship Positions

Celebrity Mercury

Last reported at 2018-Feb-22 01:39 UTC. Time now 2018-Feb-22 17:09 UTC.
Position N 35°58' W 005°38'.

Length 264 m; draft 8.5 m.

Type: Ship. MMSI: 249053000.

Date/timePositionNaut miles runAvg speedWind from/ knotsBaromVisibWave heightAir tempDewpointWater temp
2018-Feb-22 01:39N 35°58' W 005°38'215.5
2018-Feb-22 01:30N 35°58' W 005°35'816.1
2018-Feb-22 01:00N 35°60' W 005°26'815.3
2018-Feb-22 00:30N 36°01' W 005°16'917.5
2018-Feb-22 00:00N 36°03' W 005°05'21216.2
2018-Feb-21 10:53N 37°06' W 000°53'616.8
2018-Feb-21 10:30N 37°10' W 000°47'19316.4
2018-Feb-20 22:43N 39°12' E 002°22'316.2
2018-Feb-20 22:30N 39°15' E 002°25'816.2
2018-Feb-20 22:00N 39°22' E 002°30'816.3
2018-Feb-20 21:30N 39°29' E 002°36'4 8.5
2018-Feb-20 20:59N 39°33' E 002°38'0 0.1
2018-Feb-20 20:29N 39°33' E 002°38'0 0.0
2018-Feb-20 19:59N 39°33' E 002°38'0 0.0
2018-Feb-20 19:29N 39°33' E 002°38'0 0.0
2018-Feb-20 18:59N 39°33' E 002°38'0 0.0
2018-Feb-20 18:29N 39°33' E 002°38'0 0.0
2018-Feb-20 17:59N 39°33' E 002°38'0 0.0
2018-Feb-20 17:29N 39°33' E 002°38'0 0.0
2018-Feb-20 16:59N 39°33' E 002°38'0 0.0
2018-Feb-20 16:28N 39°33' E 002°38'0 0.0
2018-Feb-20 15:58N 39°33' E 002°38'0 0.0
2018-Feb-20 15:28N 39°33' E 002°38'0 0.0
2018-Feb-20 14:58N 39°33' E 002°38'0 0.0
2018-Feb-20 14:28N 39°33' E 002°38'0 0.0
2018-Feb-20 13:58N 39°33' E 002°38'0 0.0
2018-Feb-20 13:28N 39°33' E 002°38'0 0.0
2018-Feb-20 12:58N 39°33' E 002°38'0 0.0
2018-Feb-20 12:28N 39°33' E 002°38'0 0.0
2018-Feb-20 11:58N 39°33' E 002°38'0 0.0
2018-Feb-20 11:28N 39°33' E 002°38'0 0.0
2018-Feb-20 10:58N 39°33' E 002°38'0 0.0
2018-Feb-20 10:28N 39°33' E 002°38'0 0.0
2018-Feb-20 09:58N 39°33' E 002°38'0 0.0
2018-Feb-20 09:30N 39°33' E 002°38'0 0.0
2018-Feb-20 08:59N 39°33' E 002°38'0 0.0
2018-Feb-20 08:29N 39°33' E 002°38'0 0.0
2018-Feb-20 07:59N 39°33' E 002°38'0 0.0
2018-Feb-20 07:29N 39°33' E 002°38'0 0.0
2018-Feb-20 06:59N 39°33' E 002°38'0 0.0
2018-Feb-20 06:29N 39°33' E 002°38'0 0.0
2018-Feb-20 05:59N 39°33' E 002°38'0 0.0
2018-Feb-20 05:26N 39°33' E 002°38'0 0.0
2018-Feb-20 04:59N 39°33' E 002°38'0 0.0
2018-Feb-20 04:29N 39°33' E 002°38'0 0.0
2018-Feb-20 03:59N 39°33' E 002°38'0 0.0
2018-Feb-20 03:29N 39°33' E 002°38'0 0.0
2018-Feb-20 02:59N 39°33' E 002°38'1 1.2
2018-Feb-20 02:30N 39°33' E 002°38'4 8.6
2018-Feb-20 02:00N 39°29' E 002°37'713.8
2018-Feb-20 01:30N 39°24' E 002°32'714.0
2018-Feb-20 01:00N 39°26' E 002°23'9715.3
2018-Feb-19 18:40N 41°02' E 002°09'315.9
2018-Feb-19 18:30N 41°05' E 002°10'816.0
2018-Feb-19 18:00N 41°13' E 002°11'713.2
2018-Feb-19 17:30N 41°19' E 002°10'2 4.4
2018-Feb-19 16:58N 41°22' E 002°11'0 0.0
2018-Feb-19 16:28N 41°22' E 002°11'0 0.0
2018-Feb-19 15:58N 41°22' E 002°11'0 0.0
2018-Feb-19 15:30N 41°22' E 002°11'0 0.0
2018-Feb-19 14:59N 41°22' E 002°11'0 0.0
2018-Feb-19 14:20N 41°22' E 002°11'0 0.0
2018-Feb-19 13:59N 41°22' E 002°11'0 0.0
2018-Feb-19 13:29N 41°22' E 002°11'0 0.0
2018-Feb-19 12:58N 41°22' E 002°11'0 0.0
2018-Feb-19 12:28N 41°22' E 002°11'0 0.0
2018-Feb-19 10:34N 41°22' E 002°11'0 0.0
2018-Feb-19 10:28N 41°22' E 002°11'0 0.0
2018-Feb-19 09:58N 41°22' E 002°11'0 0.0
2018-Feb-19 09:28N 41°22' E 002°11'3 0.8
2018-Feb-19 05:13N 41°18' E 002°10'7 8.9
2018-Feb-19 04:28N 41°12' E 002°11'613.4
2018-Feb-19 03:59N 41°06' E 002°07'613.5
2018-Feb-19 03:30N 41°00' E 002°03'713.1
2018-Feb-19 03:00N 40°54' E 001°59'20715.8
2018-Feb-18 13:55N 37°54' W 000°12'1017.0
2018-Feb-18 13:21N 37°46' W 000°19'617.0
2018-Feb-18 13:00N 37°41' W 000°23'816.7
2018-Feb-18 12:31N 37°35' W 000°29'816.3
2018-Feb-18 12:01N 37°29' W 000°37'815.9
2018-Feb-18 11:31N 37°24' W 000°44'815.7
2018-Feb-18 11:01N 37°19' W 000°52'815.7
2018-Feb-18 10:29N 37°13' W 000°59'713.9
2018-Feb-18 10:00N 37°09' W 001°06'  
2018-Feb-15 12:28N 30°26' W 009°39'0 0.0
2018-Feb-15 11:58N 30°26' W 009°39'0 0.0
2018-Feb-15 11:19N 30°26' W 009°39'0 0.0
2018-Feb-15 10:46N 30°26' W 009°39'0 0.0
2018-Feb-15 10:19N 30°26' W 009°39'17 4.2
2018-Feb-15 06:23N 30°18' W 009°56'718.6
2018-Feb-15 05:59N 30°15' W 010°03'918.3
2018-Feb-15 05:29N 30°11' W 010°13'1418.3
2018-Feb-15 04:42N 30°05' W 010°28'418.5
2018-Feb-15 04:30N 30°04' W 010°32'5918.3
2018-Feb-15 01:17N 29°40' W 011°34'518.3
2018-Feb-15 01:00N 29°38' W 011°40'918.2
2018-Feb-15 00:30N 29°35' W 011°49'918.0
2018-Feb-15 00:00N 29°31' W 011°59'815.4
2018-Feb-14 23:29N 29°28' W 012°07'815.5
2018-Feb-14 22:58N 29°25' W 012°16'715.4
2018-Feb-14 22:30N 29°22' W 012°23'815.4
2018-Feb-14 22:00N 29°19' W 012°32'715.1
2018-Feb-14 21:30N 29°15' W 012°39'815.4
2018-Feb-14 21:00N 29°13' W 012°47'815.5
2018-Feb-14 20:30N 29°10' W 012°56'1215.5
2018-Feb-14 19:45N 29°05' W 013°08'415.9
2018-Feb-14 19:30N 29°04' W 013°12'815.9
2018-Feb-14 19:00N 29°01' W 013°20'816.0
2018-Feb-14 18:30N 28°57' W 013°29'3 5.8
2018-Feb-14 17:59N 28°58' W 013°32'0 0.0
2018-Feb-14 17:29N 28°58' W 013°32'0 0.0
2018-Feb-14 16:59N 28°58' W 013°32'0 0.0
2018-Feb-14 16:23N 28°58' W 013°32'0 0.0
2018-Feb-14 15:59N 28°58' W 013°32'0 0.0
2018-Feb-14 15:23N 28°58' W 013°32'0 0.0
2018-Feb-14 14:59N 28°58' W 013°32'0 0.0
2018-Feb-14 14:23N 28°58' W 013°32'0 0.0
2018-Feb-14 13:53N 28°58' W 013°32'0 0.0
2018-Feb-14 13:29N 28°58' W 013°32'0 0.0
2018-Feb-14 12:53N 28°58' W 013°32'0 0.0
2018-Feb-14 12:26N 28°58' W 013°32'0 0.0
2018-Feb-14 11:56N 28°58' W 013°32'0 0.0
2018-Feb-14 11:26N 28°58' W 013°32'0 0.0
2018-Feb-14 10:56N 28°58' W 013°32'0 0.0
2018-Feb-14 09:41N 28°58' W 013°32'0 0.0
2018-Feb-14 09:23N 28°58' W 013°32'0 0.0
2018-Feb-14 02:35N 28°58' W 013°32'0 0.0
2018-Feb-14 02:23N 28°58' W 013°32'0 0.0
2018-Feb-13 21:53N 28°58' W 013°32'0 0.6
2018-Feb-13 21:29N 28°58' W 013°32'612.1
2018-Feb-13 21:00N 28°52' W 013°35'713.1
2018-Feb-13 20:30N 28°47' W 013°39'612.0
2018-Feb-13 20:00N 28°41' W 013°42'5 8.6
2018-Feb-13 19:27N 28°37' W 013°44'4 8.7
2018-Feb-13 19:00N 28°34' W 013°46'5 8.4
2018-Feb-13 18:22N 28°29' W 013°50'2 1.5
2018-Feb-13 17:19N 28°30' W 013°51'0 0.0
2018-Feb-13 17:01N 28°30' W 013°51'0 0.0
2018-Feb-13 16:31N 28°30' W 013°51'8 0.8
2018-Feb-13 06:54N 28°34' W 013°44'614.4
2018-Feb-13 06:30N 28°38' W 013°40'714.2
2018-Feb-13 06:00N 28°44' W 013°35'713.9
2018-Feb-13 05:30N 28°50' W 013°30'713.7
2018-Feb-13 05:01N 28°54' W 013°25'612.7
2018-Feb-13 04:30N 28°59' W 013°19'816.3
2018-Feb-13 04:01N 29°05' W 013°14'  

Dump ship's entire track history